Terminal Aerodrome Forecast
Issued by NWS

Home | Current Version | Previous Version | Text Only | Print | Product List | Glossary On
Versions: 1 2 3 4 5 6 7 8 9 10 11 12 13 14 15 16 17 18 19 20 21 22 23 24
000
FTUS41 KOKX 301400 AAA
TAFHPN
TAF AMD
KHPN 301440Z 3015/0112 10003KT 3SM BR BKN004
      TEMPO 3016/3018 SCT004 OVC008
     FM301800 10005KT 6SM BR OVC015
     FM302000 09005KT P6SM BKN035
     FM010200 05007KT P6SM BKN012
     FM010500 04010KT P6SM OVC008
      AMD NOT SKED=

USA.gov is the U.S. government's official web portal to all federal, state and local government web resources and services.